sensor_id;sensor_type;location;lat;lon;timestamp;P1;durP1;ratioP1;P2;durP2;ratioP2
71806;SDS011;59655;42.590;23.364;2022-07-29T00:00:19;20.17;;;9.32;;
71806;SDS011;59655;42.590;23.364;2022-07-29T00:02:44;21.35;;;10.48;;
71806;SDS011;59655;42.590;23.364;2022-07-29T00:05:09;18.77;;;10.85;;
71806;SDS011;59655;42.590;23.364;2022-07-29T00:07:38;18.65;;;11.80;;
71806;SDS011;59655;42.590;23.364;2022-07-29T00:10:04;20.67;;;11.32;;
71806;SDS011;59655;42.590;23.364;2022-07-29T00:12:29;18.55;;;11.57;;
71806;SDS011;59655;42.590;23.364;2022-07-29T00:14:55;27.10;;;12.50;;
71806;SDS011;59655;42.590;23.364;2022-07-29T00:17:21;21.45;;;12.10;;
71806;SDS011;59655;42.590;23.364;2022-07-29T00:19:47;21.85;;;12.40;;
71806;SDS011;59655;42.590;23.364;2022-07-29T00:22:12;19.80;;;11.40;;
71806;SDS011;59655;42.590;23.364;2022-07-29T00:24:37;20.58;;;11.98;;
71806;SDS011;59655;42.590;23.364;2022-07-29T00:27:03;22.33;;;12.45;;
71806;SDS011;59655;42.590;23.364;2022-07-29T00:29:28;25.77;;;13.70;;
71806;SDS011;59655;42.590;23.364;2022-07-29T00:31:53;21.98;;;12.60;;
71806;SDS011;59655;42.590;23.364;2022-07-29T00:34:19;19.08;;;11.98;;
71806;SDS011;59655;42.590;23.364;2022-07-29T00:37:03;23.10;;;12.32;;
71806;SDS011;59655;42.590;23.364;2022-07-29T00:39:28;23.13;;;12.15;;
71806;SDS011;59655;42.590;23.364;2022-07-29T00:41:54;24.58;;;11.98;;
71806;SDS011;59655;42.590;23.364;2022-07-29T00:44:19;22.73;;;11.95;;
71806;SDS011;59655;42.590;23.364;2022-07-29T00:46:45;20.17;;;12.50;;
71806;SDS011;59655;42.590;23.364;2022-07-29T00:49:10;19.88;;;11.93;;
71806;SDS011;59655;42.590;23.364;2022-07-29T00:51:36;21.15;;;12.48;;
71806;SDS011;59655;42.590;23.364;2022-07-29T00:54:03;20.13;;;11.60;;
71806;SDS011;59655;42.590;23.364;2022-07-29T00:56:32;28.80;;;12.75;;
71806;SDS011;59655;42.590;23.364;2022-07-29T00:58:58;21.48;;;11.95;;
71806;SDS011;59655;42.590;23.364;2022-07-29T01:01:24;26.75;;;13.13;;
71806;SDS011;59655;42.590;23.364;2022-07-29T01:03:50;22.45;;;13.05;;
71806;SDS011;59655;42.590;23.364;2022-07-29T01:06:16;22.50;;;12.85;;
71806;SDS011;59655;42.590;23.364;2022-07-29T01:08:43;21.88;;;12.85;;
71806;SDS011;59655;42.590;23.364;2022-07-29T01:11:09;22.77;;;12.43;;
71806;SDS011;59655;42.590;23.364;2022-07-29T01:13:35;20.42;;;12.23;;
71806;SDS011;59655;42.590;23.364;2022-07-29T01:16:13;23.48;;;12.48;;
71806;SDS011;59655;42.590;23.364;2022-07-29T01:18:46;20.25;;;12.25;;
71806;SDS011;59655;42.590;23.364;2022-07-29T01:24:39;22.80;;;12.43;;
71806;SDS011;59655;42.590;23.364;2022-07-29T01:29:55;18.60;;;12.05;;
71806;SDS011;59655;42.590;23.364;2022-07-29T01:32:24;21.27;;;12.25;;
71806;SDS011;59655;42.590;23.364;2022-07-29T01:43:16;22.52;;;12.60;;
71806;SDS011;59655;42.590;23.364;2022-07-29T01:45:46;22.25;;;12.80;;
71806;SDS011;59655;42.590;23.364;2022-07-29T01:48:50;25.42;;;12.98;;
71806;SDS011;59655;42.590;23.364;2022-07-29T01:52:02;22.13;;;12.20;;
71806;SDS011;59655;42.590;23.364;2022-07-29T01:54:28;22.23;;;11.77;;
71806;SDS011;59655;42.590;23.364;2022-07-29T01:56:59;20.15;;;11.90;;
71806;SDS011;59655;42.590;23.364;2022-07-29T01:59:26;21.70;;;12.68;;
71806;SDS011;59655;42.590;23.364;2022-07-29T02:01:54;20.25;;;12.90;;
71806;SDS011;59655;42.590;23.364;2022-07-29T02:04:20;26.10;;;13.07;;
71806;SDS011;59655;42.590;23.364;2022-07-29T02:06:48;26.27;;;13.18;;
71806;SDS011;59655;42.590;23.364;2022-07-29T02:11:44;19.67;;;11.77;;
71806;SDS011;59655;42.590;23.364;2022-07-29T02:14:15;25.98;;;13.50;;
71806;SDS011;59655;42.590;23.364;2022-07-29T02:16:42;20.02;;;12.38;;
71806;SDS011;59655;42.590;23.364;2022-07-29T02:19:09;21.88;;;13.10;;
71806;SDS011;59655;42.590;23.364;2022-07-29T02:21:35;25.13;;;12.95;;
71806;SDS011;59655;42.590;23.364;2022-07-29T02:24:01;27.95;;;12.65;;
71806;SDS011;59655;42.590;23.364;2022-07-29T02:26:29;23.30;;;13.40;;
71806;SDS011;59655;42.590;23.364;2022-07-29T02:28:56;26.38;;;14.52;;
71806;SDS011;59655;42.590;23.364;2022-07-29T02:31:29;25.95;;;13.27;;
71806;SDS011;59655;42.590;23.364;2022-07-29T02:33:58;22.02;;;12.93;;
71806;SDS011;59655;42.590;23.364;2022-07-29T02:36:24;23.08;;;12.90;;
71806;SDS011;59655;42.590;23.364;2022-07-29T02:38:51;24.95;;;12.73;;
71806;SDS011;59655;42.590;23.364;2022-07-29T02:41:23;21.08;;;12.70;;
71806;SDS011;59655;42.590;23.364;2022-07-29T02:43:55;25.60;;;13.13;;
71806;SDS011;59655;42.590;23.364;2022-07-29T02:46:26;23.75;;;12.65;;
71806;SDS011;59655;42.590;23.364;2022-07-29T02:51:32;26.50;;;11.77;;
71806;SDS011;59655;42.590;23.364;2022-07-29T02:54:04;24.48;;;11.75;;
71806;SDS011;59655;42.590;23.364;2022-07-29T02:56:32;22.95;;;11.15;;
71806;SDS011;59655;42.590;23.364;2022-07-29T02:59:00;20.08;;;12.00;;
71806;SDS011;59655;42.590;23.364;2022-07-29T03:01:31;21.73;;;12.32;;
71806;SDS011;59655;42.590;23.364;2022-07-29T03:03:57;22.45;;;11.23;;
71806;SDS011;59655;42.590;23.364;2022-07-29T03:06:27;21.52;;;10.65;;
71806;SDS011;59655;42.590;23.364;2022-07-29T03:08:53;17.70;;;10.52;;
71806;SDS011;59655;42.590;23.364;2022-07-29T03:11:20;18.20;;;10.15;;
71806;SDS011;59655;42.590;23.364;2022-07-29T03:13:46;21.65;;;10.75;;
71806;SDS011;59655;42.590;23.364;2022-07-29T03:16:11;20.42;;;12.00;;
71806;SDS011;59655;42.590;23.364;2022-07-29T03:18:38;22.17;;;11.15;;
71806;SDS011;59655;42.590;23.364;2022-07-29T03:21:04;30.02;;;14.40;;
71806;SDS011;59655;42.590;23.364;2022-07-29T03:23:29;25.33;;;12.70;;
71806;SDS011;59655;42.590;23.364;2022-07-29T03:25:55;21.75;;;11.90;;
71806;SDS011;59655;42.590;23.364;2022-07-29T03:28:21;19.20;;;11.38;;
71806;SDS011;59655;42.590;23.364;2022-07-29T03:30:47;24.95;;;11.80;;
71806;SDS011;59655;42.590;23.364;2022-07-29T03:33:13;23.38;;;11.18;;
71806;SDS011;59655;42.590;23.364;2022-07-29T03:35:39;24.58;;;10.82;;
71806;SDS011;59655;42.590;23.364;2022-07-29T03:38:04;18.17;;;10.13;;
71806;SDS011;59655;42.590;23.364;2022-07-29T03:40:33;20.38;;;10.27;;
71806;SDS011;59655;42.590;23.364;2022-07-29T03:43:07;18.65;;;10.50;;
71806;SDS011;59655;42.590;23.364;2022-07-29T03:45:34;20.10;;;12.40;;
71806;SDS011;59655;42.590;23.364;2022-07-29T03:48:01;29.90;;;11.05;;
71806;SDS011;59655;42.590;23.364;2022-07-29T03:50:30;21.70;;;9.93;;
71806;SDS011;59655;42.590;23.364;2022-07-29T03:52:57;22.90;;;14.35;;
71806;SDS011;59655;42.590;23.364;2022-07-29T03:55:23;21.38;;;10.30;;
71806;SDS011;59655;42.590;23.364;2022-07-29T03:57:49;21.52;;;9.68;;
71806;SDS011;59655;42.590;23.364;2022-07-29T04:00:14;19.15;;;9.82;;
71806;SDS011;59655;42.590;23.364;2022-07-29T04:02:40;26.52;;;9.90;;
71806;SDS011;59655;42.590;23.364;2022-07-29T04:05:13;19.42;;;9.80;;
71806;SDS011;59655;42.590;23.364;2022-07-29T04:07:39;17.70;;;9.00;;
71806;SDS011;59655;42.590;23.364;2022-07-29T04:10:09;17.92;;;9.88;;
71806;SDS011;59655;42.590;23.364;2022-07-29T04:12:34;22.90;;;9.35;;
71806;SDS011;59655;42.590;23.364;2022-07-29T04:15:00;17.95;;;10.88;;
71806;SDS011;59655;42.590;23.364;2022-07-29T04:17:26;21.95;;;10.27;;
71806;SDS011;59655;42.590;23.364;2022-07-29T04:19:51;27.08;;;10.48;;
71806;SDS011;59655;42.590;23.364;2022-07-29T04:22:17;25.33;;;11.90;;
71806;SDS011;59655;42.590;23.364;2022-07-29T04:24:42;21.10;;;11.27;;
71806;SDS011;59655;42.590;23.364;2022-07-29T04:27:07;21.35;;;10.73;;
71806;SDS011;59655;42.590;23.364;2022-07-29T04:29:33;21.63;;;9.65;;
71806;SDS011;59655;42.590;23.364;2022-07-29T04:31:58;16.58;;;8.35;;
71806;SDS011;59655;42.590;23.364;2022-07-29T04:34:23;25.25;;;10.10;;
71806;SDS011;59655;42.590;23.364;2022-07-29T04:36:49;28.20;;;12.32;;
71806;SDS011;59655;42.590;23.364;2022-07-29T04:39:14;16.02;;;9.75;;
71806;SDS011;59655;42.590;23.364;2022-07-29T04:41:39;20.10;;;10.38;;
71806;SDS011;59655;42.590;23.364;2022-07-29T04:44:05;21.08;;;10.35;;
71806;SDS011;59655;42.590;23.364;2022-07-29T04:46:31;16.90;;;8.45;;
71806;SDS011;59655;42.590;23.364;2022-07-29T04:48:56;28.30;;;9.98;;
71806;SDS011;59655;42.590;23.364;2022-07-29T04:51:22;23.73;;;10.60;;
71806;SDS011;59655;42.590;23.364;2022-07-29T04:53:47;23.48;;;9.52;;
71806;SDS011;59655;42.590;23.364;2022-07-29T04:56:12;24.27;;;9.05;;
71806;SDS011;59655;42.590;23.364;2022-07-29T04:58:38;19.42;;;9.40;;
71806;SDS011;59655;42.590;23.364;2022-07-29T05:01:03;17.50;;;9.63;;
71806;SDS011;59655;42.590;23.364;2022-07-29T05:03:29;16.67;;;8.95;;
71806;SDS011;59655;42.590;23.364;2022-07-29T05:05:54;13.20;;;8.35;;
71806;SDS011;59655;42.590;23.364;2022-07-29T05:08:20;16.25;;;9.55;;
71806;SDS011;59655;42.590;23.364;2022-07-29T05:10:45;20.52;;;9.05;;
71806;SDS011;59655;42.590;23.364;2022-07-29T05:13:11;14.50;;;8.93;;
71806;SDS011;59655;42.590;23.364;2022-07-29T05:15:36;15.32;;;8.80;;
71806;SDS011;59655;42.590;23.364;2022-07-29T05:18:02;14.57;;;9.23;;
71806;SDS011;59655;42.590;23.364;2022-07-29T05:20:28;20.63;;;9.07;;
71806;SDS011;59655;42.590;23.364;2022-07-29T05:22:55;17.00;;;8.63;;
71806;SDS011;59655;42.590;23.364;2022-07-29T05:25:24;14.98;;;8.77;;
71806;SDS011;59655;42.590;23.364;2022-07-29T05:27:51;12.93;;;8.75;;
71806;SDS011;59655;42.590;23.364;2022-07-29T05:30:16;12.90;;;8.70;;
71806;SDS011;59655;42.590;23.364;2022-07-29T05:32:42;14.65;;;9.32;;
71806;SDS011;59655;42.590;23.364;2022-07-29T05:35:07;16.30;;;9.00;;
71806;SDS011;59655;42.590;23.364;2022-07-29T05:37:33;15.80;;;8.57;;
71806;SDS011;59655;42.590;23.364;2022-07-29T05:39:58;16.75;;;8.98;;
71806;SDS011;59655;42.590;23.364;2022-07-29T05:42:24;14.60;;;9.45;;
71806;SDS011;59655;42.590;23.364;2022-07-29T05:44:50;16.05;;;9.57;;
71806;SDS011;59655;42.590;23.364;2022-07-29T05:47:16;16.25;;;8.82;;
71806;SDS011;59655;42.590;23.364;2022-07-29T05:49:41;13.30;;;8.93;;
71806;SDS011;59655;42.590;23.364;2022-07-29T05:52:07;19.17;;;9.82;;
71806;SDS011;59655;42.590;23.364;2022-07-29T05:54:32;16.70;;;9.35;;
71806;SDS011;59655;42.590;23.364;2022-07-29T05:56:57;18.10;;;9.77;;
71806;SDS011;59655;42.590;23.364;2022-07-29T05:59:23;13.77;;;8.95;;
71806;SDS011;59655;42.590;23.364;2022-07-29T06:01:48;13.57;;;8.80;;
71806;SDS011;59655;42.590;23.364;2022-07-29T06:04:13;19.10;;;10.50;;
71806;SDS011;59655;42.590;23.364;2022-07-29T06:06:39;15.55;;;10.02;;
71806;SDS011;59655;42.590;23.364;2022-07-29T06:09:04;14.65;;;9.15;;
71806;SDS011;59655;42.590;23.364;2022-07-29T06:11:30;17.08;;;9.18;;
71806;SDS011;59655;42.590;23.364;2022-07-29T06:13:55;15.20;;;9.13;;
71806;SDS011;59655;42.590;23.364;2022-07-29T06:16:20;17.80;;;9.60;;
71806;SDS011;59655;42.590;23.364;2022-07-29T06:18:46;12.27;;;8.63;;
71806;SDS011;59655;42.590;23.364;2022-07-29T06:21:11;16.08;;;9.02;;
71806;SDS011;59655;42.590;23.364;2022-07-29T06:23:37;13.50;;;9.02;;
71806;SDS011;59655;42.590;23.364;2022-07-29T06:26:03;14.90;;;9.70;;
71806;SDS011;59655;42.590;23.364;2022-07-29T06:28:29;16.40;;;8.77;;
71806;SDS011;59655;42.590;23.364;2022-07-29T06:30:55;14.60;;;9.95;;
71806;SDS011;59655;42.590;23.364;2022-07-29T06:33:20;14.75;;;9.07;;
71806;SDS011;59655;42.590;23.364;2022-07-29T06:35:46;17.42;;;9.95;;
71806;SDS011;59655;42.590;23.364;2022-07-29T06:38:15;14.40;;;9.43;;
71806;SDS011;59655;42.590;23.364;2022-07-29T06:40:41;14.25;;;9.05;;
71806;SDS011;59655;42.590;23.364;2022-07-29T06:43:47;16.98;;;9.07;;
71806;SDS011;59655;42.590;23.364;2022-07-29T06:46:13;16.60;;;10.63;;
71806;SDS011;59655;42.590;23.364;2022-07-29T06:48:41;19.35;;;10.35;;
71806;SDS011;59655;42.590;23.364;2022-07-29T06:51:07;16.90;;;10.70;;
71806;SDS011;59655;42.590;23.364;2022-07-29T06:53:34;18.20;;;9.57;;
71806;SDS011;59655;42.590;23.364;2022-07-29T06:56:00;17.35;;;10.48;;
71806;SDS011;59655;42.590;23.364;2022-07-29T06:58:27;18.70;;;11.80;;
71806;SDS011;59655;42.590;23.364;2022-07-29T07:00:53;19.02;;;10.93;;
71806;SDS011;59655;42.590;23.364;2022-07-29T07:03:19;17.23;;;10.18;;
71806;SDS011;59655;42.590;23.364;2022-07-29T07:05:44;22.27;;;11.20;;
71806;SDS011;59655;42.590;23.364;2022-07-29T07:08:10;13.75;;;9.63;;
71806;SDS011;59655;42.590;23.364;2022-07-29T07:10:36;22.60;;;11.10;;
71806;SDS011;59655;42.590;23.364;2022-07-29T07:13:02;25.30;;;12.27;;
71806;SDS011;59655;42.590;23.364;2022-07-29T07:15:28;24.67;;;11.70;;
71806;SDS011;59655;42.590;23.364;2022-07-29T07:17:53;19.88;;;10.65;;
71806;SDS011;59655;42.590;23.364;2022-07-29T07:20:18;22.75;;;10.65;;
71806;SDS011;59655;42.590;23.364;2022-07-29T07:22:44;21.67;;;10.20;;
71806;SDS011;59655;42.590;23.364;2022-07-29T07:25:10;20.70;;;9.85;;
71806;SDS011;59655;42.590;23.364;2022-07-29T07:27:36;15.20;;;9.18;;
71806;SDS011;59655;42.590;23.364;2022-07-29T07:30:03;13.63;;;8.73;;
71806;SDS011;59655;42.590;23.364;2022-07-29T07:32:33;14.00;;;9.10;;
71806;SDS011;59655;42.590;23.364;2022-07-29T07:34:59;16.15;;;9.15;;
71806;SDS011;59655;42.590;23.364;2022-07-29T07:37:25;17.58;;;9.55;;
71806;SDS011;59655;42.590;23.364;2022-07-29T07:39:51;14.27;;;8.88;;
71806;SDS011;59655;42.590;23.364;2022-07-29T07:42:17;14.95;;;9.52;;
71806;SDS011;59655;42.590;23.364;2022-07-29T07:44:42;14.02;;;9.80;;
71806;SDS011;59655;42.590;23.364;2022-07-29T07:47:08;14.25;;;8.75;;
71806;SDS011;59655;42.590;23.364;2022-07-29T07:49:33;14.48;;;9.13;;
71806;SDS011;59655;42.590;23.364;2022-07-29T07:51:59;14.82;;;9.23;;
71806;SDS011;59655;42.590;23.364;2022-07-29T07:54:24;14.63;;;8.30;;
71806;SDS011;59655;42.590;23.364;2022-07-29T07:56:50;13.13;;;8.55;;
71806;SDS011;59655;42.590;23.364;2022-07-29T07:59:16;17.42;;;9.15;;
71806;SDS011;59655;42.590;23.364;2022-07-29T08:01:42;17.25;;;8.98;;
71806;SDS011;59655;42.590;23.364;2022-07-29T08:04:07;13.55;;;8.70;;
71806;SDS011;59655;42.590;23.364;2022-07-29T08:06:34;14.65;;;8.57;;
71806;SDS011;59655;42.590;23.364;2022-07-29T08:09:01;13.57;;;8.93;;
71806;SDS011;59655;42.590;23.364;2022-07-29T08:11:28;14.98;;;8.65;;
71806;SDS011;59655;42.590;23.364;2022-07-29T08:13:53;14.35;;;8.95;;
71806;SDS011;59655;42.590;23.364;2022-07-29T08:16:19;15.70;;;8.85;;
71806;SDS011;59655;42.590;23.364;2022-07-29T08:18:45;13.63;;;9.15;;
71806;SDS011;59655;42.590;23.364;2022-07-29T08:21:11;17.98;;;8.63;;
71806;SDS011;59655;42.590;23.364;2022-07-29T08:23:37;12.68;;;9.02;;
71806;SDS011;59655;42.590;23.364;2022-07-29T08:26:11;14.35;;;8.57;;
71806;SDS011;59655;42.590;23.364;2022-07-29T08:28:37;17.55;;;8.70;;
71806;SDS011;59655;42.590;23.364;2022-07-29T08:31:03;15.93;;;8.40;;
71806;SDS011;59655;42.590;23.364;2022-07-29T08:33:29;15.02;;;8.13;;
71806;SDS011;59655;42.590;23.364;2022-07-29T08:35:54;14.95;;;8.45;;
71806;SDS011;59655;42.590;23.364;2022-07-29T08:38:19;17.80;;;8.68;;
71806;SDS011;59655;42.590;23.364;2022-07-29T08:40:45;16.35;;;9.00;;
71806;SDS011;59655;42.590;23.364;2022-07-29T08:43:11;16.45;;;9.82;;
71806;SDS011;59655;42.590;23.364;2022-07-29T08:45:44;17.27;;;9.32;;
71806;SDS011;59655;42.590;23.364;2022-07-29T08:50:37;16.95;;;8.95;;
71806;SDS011;59655;42.590;23.364;2022-07-29T08:53:03;13.65;;;8.40;;
71806;SDS011;59655;42.590;23.364;2022-07-29T08:55:31;22.33;;;10.27;;
71806;SDS011;59655;42.590;23.364;2022-07-29T08:57:56;17.65;;;9.30;;
71806;SDS011;59655;42.590;23.364;2022-07-29T09:00:22;16.30;;;9.40;;
71806;SDS011;59655;42.590;23.364;2022-07-29T09:02:50;20.75;;;9.65;;
71806;SDS011;59655;42.590;23.364;2022-07-29T09:05:21;19.00;;;9.40;;
71806;SDS011;59655;42.590;23.364;2022-07-29T09:07:49;20.27;;;9.43;;
71806;SDS011;59655;42.590;23.364;2022-07-29T09:10:15;23.90;;;8.90;;
71806;SDS011;59655;42.590;23.364;2022-07-29T09:12:40;18.40;;;10.00;;
71806;SDS011;59655;42.590;23.364;2022-07-29T09:15:06;20.63;;;10.35;;
71806;SDS011;59655;42.590;23.364;2022-07-29T09:20:14;20.33;;;9.48;;
71806;SDS011;59655;42.590;23.364;2022-07-29T09:22:39;16.25;;;10.13;;
71806;SDS011;59655;42.590;23.364;2022-07-29T09:25:05;20.40;;;10.02;;
71806;SDS011;59655;42.590;23.364;2022-07-29T09:27:30;19.42;;;9.80;;
71806;SDS011;59655;42.590;23.364;2022-07-29T09:30:00;20.10;;;10.05;;
71806;SDS011;59655;42.590;23.364;2022-07-29T09:32:25;15.55;;;9.77;;
71806;SDS011;59655;42.590;23.364;2022-07-29T09:34:57;17.35;;;10.23;;
71806;SDS011;59655;42.590;23.364;2022-07-29T09:37:44;19.88;;;10.95;;
71806;SDS011;59655;42.590;23.364;2022-07-29T09:40:11;20.50;;;10.82;;
71806;SDS011;59655;42.590;23.364;2022-07-29T09:42:41;17.27;;;10.80;;
71806;SDS011;59655;42.590;23.364;2022-07-29T09:45:07;23.50;;;10.40;;
71806;SDS011;59655;42.590;23.364;2022-07-29T09:47:51;16.20;;;10.65;;
71806;SDS011;59655;42.590;23.364;2022-07-29T09:50:16;20.15;;;11.05;;
71806;SDS011;59655;42.590;23.364;2022-07-29T09:52:48;21.42;;;11.07;;
71806;SDS011;59655;42.590;23.364;2022-07-29T09:55:15;19.65;;;11.15;;
71806;SDS011;59655;42.590;23.364;2022-07-29T09:57:41;15.07;;;10.68;;
71806;SDS011;59655;42.590;23.364;2022-07-29T10:02:37;21.23;;;11.60;;
71806;SDS011;59655;42.590;23.364;2022-07-29T10:07:45;16.95;;;10.98;;
71806;SDS011;59655;42.590;23.364;2022-07-29T10:10:19;15.00;;;9.68;;
71806;SDS011;59655;42.590;23.364;2022-07-29T10:15:15;17.20;;;10.27;;
71806;SDS011;59655;42.590;23.364;2022-07-29T10:17:41;19.00;;;10.13;;
71806;SDS011;59655;42.590;23.364;2022-07-29T10:20:07;15.27;;;9.60;;
71806;SDS011;59655;42.590;23.364;2022-07-29T10:22:33;19.83;;;10.43;;
71806;SDS011;59655;42.590;23.364;2022-07-29T10:24:59;17.45;;;10.23;;
71806;SDS011;59655;42.590;23.364;2022-07-29T10:27:24;15.98;;;10.75;;
71806;SDS011;59655;42.590;23.364;2022-07-29T10:29:50;17.75;;;9.77;;
71806;SDS011;59655;42.590;23.364;2022-07-29T10:37:56;18.52;;;9.77;;
71806;SDS011;59655;42.590;23.364;2022-07-29T10:40:28;17.20;;;10.55;;
71806;SDS011;59655;42.590;23.364;2022-07-29T10:43:34;13.88;;;9.10;;
71806;SDS011;59655;42.590;23.364;2022-07-29T10:46:03;15.95;;;9.93;;
71806;SDS011;59655;42.590;23.364;2022-07-29T10:48:29;17.25;;;9.40;;
71806;SDS011;59655;42.590;23.364;2022-07-29T10:50:58;18.55;;;10.88;;
71806;SDS011;59655;42.590;23.364;2022-07-29T10:56:35;14.40;;;9.05;;
71806;SDS011;59655;42.590;23.364;2022-07-29T11:01:49;16.70;;;9.68;;
71806;SDS011;59655;42.590;23.364;2022-07-29T11:04:16;17.73;;;10.00;;
71806;SDS011;59655;42.590;23.364;2022-07-29T11:09:30;17.00;;;10.00;;
71806;SDS011;59655;42.590;23.364;2022-07-29T11:11:58;17.33;;;9.57;;
71806;SDS011;59655;42.590;23.364;2022-07-29T11:17:22;18.50;;;9.68;;
71806;SDS011;59655;42.590;23.364;2022-07-29T11:19:47;15.75;;;9.73;;
71806;SDS011;59655;42.590;23.364;2022-07-29T11:22:31;16.05;;;9.85;;
71806;SDS011;59655;42.590;23.364;2022-07-29T11:25:14;15.10;;;9.55;;
71806;SDS011;59655;42.590;23.364;2022-07-29T11:27:40;16.80;;;9.95;;
71806;SDS011;59655;42.590;23.364;2022-07-29T11:30:07;15.27;;;8.63;;
71806;SDS011;59655;42.590;23.364;2022-07-29T11:32:40;16.23;;;9.63;;
71806;SDS011;59655;42.590;23.364;2022-07-29T11:35:18;14.15;;;9.25;;
71806;SDS011;59655;42.590;23.364;2022-07-29T11:43:49;14.73;;;9.00;;
71806;SDS011;59655;42.590;23.364;2022-07-29T11:46:16;13.50;;;9.50;;
71806;SDS011;59655;42.590;23.364;2022-07-29T11:49:03;15.63;;;10.02;;
71806;SDS011;59655;42.590;23.364;2022-07-29T11:51:28;22.65;;;11.30;;
71806;SDS011;59655;42.590;23.364;2022-07-29T11:53:54;14.02;;;10.15;;
71806;SDS011;59655;42.590;23.364;2022-07-29T11:56:21;17.95;;;10.02;;
71806;SDS011;59655;42.590;23.364;2022-07-29T11:58:46;19.58;;;10.55;;
71806;SDS011;59655;42.590;23.364;2022-07-29T12:01:18;15.40;;;10.55;;
71806;SDS011;59655;42.590;23.364;2022-07-29T12:03:43;16.38;;;11.40;;
71806;SDS011;59655;42.590;23.364;2022-07-29T12:06:12;16.90;;;10.30;;
71806;SDS011;59655;42.590;23.364;2022-07-29T12:08:42;17.52;;;11.63;;
71806;SDS011;59655;42.590;23.364;2022-07-29T12:11:14;24.55;;;12.32;;
71806;SDS011;59655;42.590;23.364;2022-07-29T12:13:41;19.60;;;11.07;;
71806;SDS011;59655;42.590;23.364;2022-07-29T12:16:07;24.63;;;11.55;;
71806;SDS011;59655;42.590;23.364;2022-07-29T12:18:32;15.80;;;10.15;;
71806;SDS011;59655;42.590;23.364;2022-07-29T12:20:58;33.47;;;11.75;;
71806;SDS011;59655;42.590;23.364;2022-07-29T12:23:27;22.77;;;12.20;;
71806;SDS011;59655;42.590;23.364;2022-07-29T12:25:52;22.85;;;11.52;;
71806;SDS011;59655;42.590;23.364;2022-07-29T12:28:17;18.73;;;11.13;;
71806;SDS011;59655;42.590;23.364;2022-07-29T12:30:44;42.88;;;13.82;;
71806;SDS011;59655;42.590;23.364;2022-07-29T12:33:15;40.03;;;12.95;;
71806;SDS011;59655;42.590;23.364;2022-07-29T12:35:41;32.03;;;12.15;;
71806;SDS011;59655;42.590;23.364;2022-07-29T12:38:09;25.02;;;12.27;;
71806;SDS011;59655;42.590;23.364;2022-07-29T12:45:38;20.58;;;11.68;;
71806;SDS011;59655;42.590;23.364;2022-07-29T12:48:04;17.38;;;11.50;;
71806;SDS011;59655;42.590;23.364;2022-07-29T12:50:33;17.52;;;11.85;;
71806;SDS011;59655;42.590;23.364;2022-07-29T12:53:10;21.70;;;11.63;;
71806;SDS011;59655;42.590;23.364;2022-07-29T12:55:47;20.58;;;11.20;;
71806;SDS011;59655;42.590;23.364;2022-07-29T13:01:14;20.10;;;12.18;;
71806;SDS011;59655;42.590;23.364;2022-07-29T13:03:58;16.52;;;10.73;;
71806;SDS011;59655;42.590;23.364;2022-07-29T13:11:44;17.23;;;11.40;;
71806;SDS011;59655;42.590;23.364;2022-07-29T13:14:35;17.40;;;11.00;;
71806;SDS011;59655;42.590;23.364;2022-07-29T13:22:10;17.88;;;11.35;;
71806;SDS011;59655;42.590;23.364;2022-07-29T13:27:16;18.33;;;10.68;;
71806;SDS011;59655;42.590;23.364;2022-07-29T13:29:42;16.90;;;11.25;;
71806;SDS011;59655;42.590;23.364;2022-07-29T13:32:08;15.32;;;10.27;;
71806;SDS011;59655;42.590;23.364;2022-07-29T13:34:33;17.08;;;10.35;;
71806;SDS011;59655;42.590;23.364;2022-07-29T13:36:59;16.80;;;10.43;;
71806;SDS011;59655;42.590;23.364;2022-07-29T13:39:24;15.70;;;9.82;;
71806;SDS011;59655;42.590;23.364;2022-07-29T13:41:49;17.10;;;10.32;;
71806;SDS011;59655;42.590;23.364;2022-07-29T13:44:16;14.15;;;10.27;;
71806;SDS011;59655;42.590;23.364;2022-07-29T13:46:41;20.88;;;10.93;;
71806;SDS011;59655;42.590;23.364;2022-07-29T13:49:07;14.85;;;10.98;;
71806;SDS011;59655;42.590;23.364;2022-07-29T13:51:32;15.18;;;10.35;;
71806;SDS011;59655;42.590;23.364;2022-07-29T13:53:57;23.95;;;10.85;;
71806;SDS011;59655;42.590;23.364;2022-07-29T13:56:23;17.45;;;10.35;;
71806;SDS011;59655;42.590;23.364;2022-07-29T13:58:48;15.88;;;10.13;;
71806;SDS011;59655;42.590;23.364;2022-07-29T14:01:14;15.95;;;10.80;;
71806;SDS011;59655;42.590;23.364;2022-07-29T14:03:39;14.88;;;11.50;;
71806;SDS011;59655;42.590;23.364;2022-07-29T14:06:07;18.58;;;12.13;;
71806;SDS011;59655;42.590;23.364;2022-07-29T14:08:33;20.13;;;12.15;;
71806;SDS011;59655;42.590;23.364;2022-07-29T14:10:59;18.48;;;12.07;;
71806;SDS011;59655;42.590;23.364;2022-07-29T14:13:24;19.23;;;11.95;;
71806;SDS011;59655;42.590;23.364;2022-07-29T14:15:50;22.10;;;11.95;;
71806;SDS011;59655;42.590;23.364;2022-07-29T14:18:15;17.38;;;11.82;;
71806;SDS011;59655;42.590;23.364;2022-07-29T14:20:40;18.77;;;12.15;;
71806;SDS011;59655;42.590;23.364;2022-07-29T14:23:06;19.48;;;11.77;;
71806;SDS011;59655;42.590;23.364;2022-07-29T14:25:31;19.48;;;12.40;;
71806;SDS011;59655;42.590;23.364;2022-07-29T14:27:57;18.67;;;12.25;;
71806;SDS011;59655;42.590;23.364;2022-07-29T14:30:22;16.33;;;11.90;;
71806;SDS011;59655;42.590;23.364;2022-07-29T14:32:47;18.60;;;13.10;;
71806;SDS011;59655;42.590;23.364;2022-07-29T14:35:13;19.80;;;12.30;;
71806;SDS011;59655;42.590;23.364;2022-07-29T14:37:38;20.02;;;12.15;;
71806;SDS011;59655;42.590;23.364;2022-07-29T14:40:04;20.50;;;11.63;;
71806;SDS011;59655;42.590;23.364;2022-07-29T14:42:30;16.65;;;11.25;;
71806;SDS011;59655;42.590;23.364;2022-07-29T14:44:58;16.58;;;11.82;;
71806;SDS011;59655;42.590;23.364;2022-07-29T14:47:24;14.68;;;10.65;;
71806;SDS011;59655;42.590;23.364;2022-07-29T14:49:49;17.50;;;11.20;;
71806;SDS011;59655;42.590;23.364;2022-07-29T14:52:15;17.10;;;11.25;;
71806;SDS011;59655;42.590;23.364;2022-07-29T14:54:41;16.02;;;12.00;;
71806;SDS011;59655;42.590;23.364;2022-07-29T14:57:06;18.77;;;12.07;;
71806;SDS011;59655;42.590;23.364;2022-07-29T14:59:32;18.65;;;12.43;;
71806;SDS011;59655;42.590;23.364;2022-07-29T15:01:58;17.70;;;12.23;;
71806;SDS011;59655;42.590;23.364;2022-07-29T15:04:23;17.48;;;11.95;;
71806;SDS011;59655;42.590;23.364;2022-07-29T15:06:48;17.88;;;12.15;;
71806;SDS011;59655;42.590;23.364;2022-07-29T15:09:14;20.75;;;12.90;;
71806;SDS011;59655;42.590;23.364;2022-07-29T15:11:39;18.10;;;12.05;;
71806;SDS011;59655;42.590;23.364;2022-07-29T15:14:05;17.88;;;11.77;;
71806;SDS011;59655;42.590;23.364;2022-07-29T15:16:31;20.10;;;11.80;;
71806;SDS011;59655;42.590;23.364;2022-07-29T15:18:56;15.07;;;11.43;;
71806;SDS011;59655;42.590;23.364;2022-07-29T15:21:23;15.77;;;10.93;;
71806;SDS011;59655;42.590;23.364;2022-07-29T15:23:48;19.27;;;11.82;;
71806;SDS011;59655;42.590;23.364;2022-07-29T15:26:14;24.95;;;14.13;;
71806;SDS011;59655;42.590;23.364;2022-07-29T15:28:40;23.38;;;14.02;;
71806;SDS011;59655;42.590;23.364;2022-07-29T15:31:05;24.95;;;14.50;;